Home   Weather   Israel   Bnei Brak   Past weeks
Flag for Israel

Past Weather in Bnei Brak, Israel — Yesterday and Last 2 Weeks

Currently: 82 °F. Sunny. (Weather station: Ben Gurion International Airport, Israel). See more current weather

Past Weather in Bnei Brak — Graph

°F

Bnei Brak Temperature Yesterday

Maximum temperature yesterday: 106 °F (at 1:20 pm)
Minimum temperature yesterday: 68 °F (at 4:20 am)
Average temperature yesterday: 87 °F

High & Low Weather Summary for the Past Weeks

 TemperatureHumidityPressure
High106 °F (Apr 19, 1:20 pm)100% (Apr 16, 5:20 am)30.15 "Hg (Apr 16, 5:20 am)
Low50 °F (Apr 14, 5:20 am)7% (Apr 6, 1:50 pm)29.74 "Hg (Apr 6, 3:50 pm)
Average69 °F49%29.96 "Hg
* Reported Apr 5 1:20 pm — Apr 20 1:20 pm, Bnei Brak. Weather by CustomWeather, © 2021

Note: Actual official high and low records may vary slightly from our data, if they occured in-between our weather recording intervals... More about our weather records

Bnei Brak Weather History for the Previous 24 Hours

Scroll right to see more
 ConditionsComfort  
Time TempWeatherWind HumidityBarometerVisibility
1:20 pm
Tue, Apr 20
84 °FSunny.16 mph37%29.83 "Hg10 mi
12:50 pm88 °FSunny.13 mph35%29.83 "Hg10 mi
12:20 pm93 °FSunny.3 mph20%29.83 "Hg10 mi
11:50 am91 °FSunny.5 mph21%29.83 "Hg10 mi
11:20 am88 °FSunny.5 mph25%29.83 "Hg10 mi
10:50 am88 °FSunny.6 mph31%29.83 "Hg10 mi
10:20 am86 °FSunny.3 mph31%29.83 "Hg10 mi
9:50 am84 °FSunny.3 mph35%29.83 "Hg10 mi
9:20 am82 °FSunny.3 mph37%29.83 "Hg10 mi
8:50 am81 °FSunny.3 mph42%29.83 "Hg10 mi
8:20 am77 °FSunny.5 mph51%29.86 "Hg10 mi
7:50 am75 °FPassing clouds.7 mph54%29.86 "HgN/A
7:20 am75 °FSunny.3 mph54%29.83 "Hg10 mi
6:50 am73 °FSunny.9 mph61%29.80 "Hg10 mi
6:20 am73 °FSunny.9 mph47%29.77 "Hg10 mi
5:50 am73 °FClear.2 mph44%29.77 "Hg10 mi
5:20 am75 °FClear.3 mph41%29.74 "Hg10 mi
4:50 am73 °FClear.6 mph47%29.77 "Hg10 mi
4:20 am73 °FClear.3 mph44%29.77 "Hg10 mi
3:50 am75 °FClear.3 mph41%29.77 "Hg10 mi
3:20 am75 °FClear.2 mph44%29.77 "Hg10 mi
2:50 am75 °FClear.2 mph41%29.77 "Hg10 mi
2:20 am75 °FClear.3 mph41%29.77 "Hg10 mi
1:50 am75 °FClear.3 mph41%29.80 "Hg10 mi
1:20 am77 °FClear.6 mph36%29.80 "Hg10 mi
12:50 am81 °FClear.8 mph30%29.80 "Hg10 mi
12:20 am81 °FClear.9 mph32%29.80 "Hg10 mi
11:50 pm
Mon, Apr 19
82 °FClear.8 mph30%29.80 "Hg10 mi
11:20 pm82 °FClear.5 mph35%29.80 "Hg10 mi
10:50 pm82 °FClear.3 mph35%29.80 "Hg10 mi
10:20 pm84 °FClear.2 mph33%29.80 "Hg10 mi
9:50 pm84 °FClear.5 mph33%29.80 "Hg10 mi
9:20 pm86 °FClear.2 mph27%29.80 "Hg10 mi
8:50 pm84 °FPassing clouds.5 mph33%29.77 "HgN/A
8:20 pm90 °FClear.5 mph24%29.77 "Hg10 mi
7:50 pm93 °FClear.2 mph17%29.77 "Hg10 mi
7:20 pm95 °FClear.3 mph16%29.77 "Hg10 mi
6:50 pm95 °FSunny.7 mph16%29.77 "Hg10 mi
6:20 pm99 °FSunny.7 mph14%29.77 "Hg10 mi
5:50 pm99 °FSunny.6 mph16%29.77 "Hg10 mi
5:20 pm99 °FSunny.9 mph15%29.77 "Hg10 mi
4:50 pm100 °FSunny.12 mph13%29.77 "Hg10 mi
4:20 pm102 °FSunny.13 mph11%29.77 "Hg10 mi
3:50 pm104 °FSunny.10 mph10%29.77 "Hg10 mi
3:20 pm106 °FSunny.14 mph8%29.80 "Hg10 mi
2:50 pm106 °FSunny.14 mph9%29.80 "Hg10 mi
2:20 pm106 °FSunny.16 mph9%29.80 "Hg10 mi
Weather by CustomWeather, © 2021

See weather overview